createdAt,value
2018-12-02T00:00:36.192Z,100052.75
2018-12-02T00:01:37.966Z,100051.45
2018-12-02T00:02:39.726Z,100051.84
2018-12-02T00:03:41.484Z,100053.31
2018-12-02T00:04:43.254Z,100047.94
2018-12-02T00:05:45.054Z,100046.25
2018-12-02T00:06:46.846Z,100047.20
2018-12-02T00:07:48.622Z,100038.45
2018-12-02T00:08:50.401Z,100036.25
2018-12-02T00:09:52.169Z,100037.02
2018-12-02T00:10:53.979Z,100031.05
2018-12-02T00:11:55.754Z,100031.44
2018-12-02T00:12:57.529Z,100031.96
2018-12-02T00:13:59.306Z,100027.02
2018-12-02T00:15:01.077Z,100029.75
2018-12-02T00:16:03.122Z,100021.43
2018-12-02T00:17:04.891Z,100017.92
2018-12-02T00:18:06.657Z,100018.06
2018-12-02T00:19:08.438Z,100012.86
2018-12-02T00:20:10.196Z,100013.77
2018-12-02T00:21:11.987Z,100011.56
2018-12-02T00:22:13.748Z,100007.92
2018-12-02T00:23:15.530Z,100009.73
2018-12-02T00:24:17.290Z,100008.97
2018-12-02T00:25:19.068Z,100003.25
2018-12-02T00:26:20.854Z,100001.95
2018-12-02T00:27:22.636Z,100003.25
2018-12-02T00:28:25.321Z,99999.34
2018-12-02T00:29:27.097Z,99998.44
2018-12-02T00:30:28.869Z,99998.05
2018-12-02T00:31:30.656Z,99995.45
2018-12-02T00:32:32.418Z,99997.27
2018-12-02T00:33:34.192Z,99995.84
2018-12-02T00:34:35.948Z,99991.55
2018-12-02T00:35:37.708Z,99988.95
2018-12-02T00:36:39.482Z,99990.64
2018-12-02T00:37:41.254Z,99988.05
2018-12-02T00:38:43.031Z,99984.53
2018-12-02T00:39:44.790Z,99985.58
2018-12-02T00:40:46.563Z,99979.86
2018-12-02T00:41:49.659Z,99985.83
2018-12-02T00:42:51.433Z,99976.73
2018-12-02T00:43:53.192Z,99981.94
2018-12-02T00:44:54.972Z,99985.06
2018-12-02T00:45:56.790Z,99982.33
2018-12-02T00:46:58.588Z,99977.13
2018-12-02T00:48:00.346Z,99972.32
2018-12-02T00:49:02.114Z,99974.53
2018-12-02T00:50:03.896Z,99974.14
2018-12-02T00:51:05.721Z,99969.33
2018-12-02T00:52:07.506Z,99969.33
2018-12-02T00:53:09.267Z,99960.23
2018-12-02T00:54:12.160Z,99957.64
2018-12-02T00:55:13.927Z,99958.94
2018-12-02T00:56:15.682Z,99956.34
2018-12-02T00:57:17.476Z,99961.16
2018-12-02T00:58:19.245Z,99957.25
2018-12-02T00:59:21.064Z,99955.43
2018-12-02T01:00:22.838Z,99961.92
2018-12-02T01:01:24.595Z,99954.66
2018-12-02T01:02:26.392Z,99952.83
2018-12-02T01:03:28.151Z,99947.64
2018-12-02T01:04:29.955Z,99945.95
2018-12-02T01:05:31.757Z,99947.25
2018-12-02T01:06:33.522Z,99952.44
2018-12-02T01:07:35.329Z,99942.44
2018-12-02T01:08:37.090Z,99943.61
2018-12-02T01:09:38.865Z,99944.27
2018-12-02T01:10:40.641Z,99951.14
2018-12-02T01:11:42.403Z,99940.75
2018-12-02T01:12:44.184Z,99939.45
2018-12-02T01:13:45.951Z,99938.55
2018-12-02T01:14:47.723Z,99937.24
2018-12-02T01:15:49.498Z,99934.64
2018-12-02T01:16:51.254Z,99933.34
2018-12-02T01:17:53.020Z,99933.73
2018-12-02T01:18:54.794Z,99931.14
2018-12-02T01:19:56.565Z,99923.34
2018-12-02T01:20:58.341Z,99924.25
2018-12-02T01:22:00.099Z,99923.86
2018-12-02T01:23:03.017Z,99916.84
2018-12-02T01:24:04.804Z,99920.74
2018-12-02T01:25:06.567Z,99907.75
2018-12-02T01:26:08.348Z,99907.23
2018-12-02T01:27:10.104Z,99906.84
2018-12-02T01:28:11.905Z,99905.55
2018-12-02T01:29:13.660Z,99898.98
2018-12-02T01:30:15.428Z,99902.92
2018-12-02T01:31:17.190Z,99895.27
2018-12-02T01:32:18.958Z,99896.44
2018-12-02T01:33:20.750Z,99885.52
2018-12-02T01:34:22.544Z,99893.23
2018-12-02T01:35:24.442Z,99890.84
2018-12-02T01:36:26.198Z,99882.66
2018-12-02T01:37:28.004Z,99882.66
2018-12-02T01:38:29.814Z,99883.83
2018-12-02T01:39:31.620Z,99875.38
2018-12-02T01:40:33.485Z,99871.09
2018-12-02T01:41:35.248Z,99873.21
2018-12-02T01:42:37.018Z,99870.45
2018-12-02T01:43:38.821Z,99879.16
2018-12-02T01:44:40.596Z,99878.77
2018-12-02T01:45:42.359Z,99876.16
2018-12-02T01:46:44.123Z,99870.84
2018-12-02T01:47:46.001Z,99870.45
2018-12-02T01:48:47.798Z,99867.84
2018-12-02T01:49:49.587Z,99869.14
2018-12-02T01:50:51.347Z,99864.47
2018-12-02T01:51:53.118Z,99871.91
2018-12-02T01:52:54.907Z,99867.84
2018-12-02T01:53:56.696Z,99870.61
2018-12-02T01:54:58.466Z,99862.13
2018-12-02T01:56:00.208Z,99862.26
2018-12-02T01:57:01.991Z,99866.16
2018-12-02T01:58:03.731Z,99863.33
2018-12-02T01:59:05.607Z,99864.47
2018-12-02T02:00:07.370Z,99855.23
2018-12-02T02:01:10.396Z,99855.53
2018-12-02T02:02:12.162Z,99859.27
2018-12-02T02:03:13.907Z,99853.33
2018-12-02T02:04:15.692Z,99852.41
2018-12-02T02:05:17.456Z,99846.27
2018-12-02T02:06:19.224Z,99846.05
2018-12-02T02:07:21.029Z,99843.67
2018-12-02T02:08:22.820Z,99842.15
2018-12-02T02:09:24.618Z,99844.45
2018-12-02T02:10:26.390Z,99833.14
2018-12-02T02:11:28.199Z,99839.64
2018-12-02T02:12:29.985Z,99832.92
2018-12-02T02:13:31.772Z,99833.27
2018-12-02T02:14:33.653Z,99827.56
2018-12-02T02:15:35.439Z,99832.63
2018-12-02T02:16:37.245Z,99829.64
2018-12-02T02:17:39.269Z,99820.93
2018-12-02T02:18:41.115Z,99822.75
2018-12-02T02:19:42.903Z,99818.33
2018-12-02T02:20:44.670Z,99820.02
2018-12-02T02:21:46.459Z,99818.84
2018-12-02T02:22:48.238Z,99815.47
2018-12-02T02:23:50.007Z,99821.45
2018-12-02T02:24:51.805Z,99818.45
2018-12-02T02:25:53.569Z,99808.84
2018-12-02T02:26:55.342Z,99804.95
2018-12-02T02:27:57.121Z,99809.36
2018-12-02T02:28:59.624Z,99810.44
2018-12-02T02:30:01.430Z,99803.38
2018-12-02T02:31:03.201Z,99803.03
2018-12-02T02:32:04.978Z,99803.77
2018-12-02T02:33:06.746Z,99793.25
2018-12-02T02:34:08.521Z,99800.66
2018-12-02T02:35:10.312Z,99796.37
2018-12-02T02:36:12.089Z,99792.08
2018-12-02T02:37:13.884Z,99789.48
2018-12-02T02:38:15.656Z,99789.73
2018-12-02T02:39:17.750Z,99789.87
2018-12-02T02:40:19.555Z,99789.48
2018-12-02T02:41:21.320Z,99779.86
2018-12-02T02:42:23.104Z,99788.56
2018-12-02T02:43:24.860Z,99784.15
2018-12-02T02:44:26.636Z,99780.77
2018-12-02T02:45:28.415Z,99776.48
2018-12-02T02:46:30.303Z,99777.03
2018-12-02T02:47:32.077Z,99777.39
2018-12-02T02:48:33.845Z,99767.77
2018-12-02T02:49:35.639Z,99767.77
2018-12-02T02:50:37.402Z,99754.26
2018-12-02T02:51:39.989Z,99760.37
2018-12-02T02:52:41.753Z,99752.57
2018-12-02T02:53:43.518Z,99755.56
2018-12-02T02:54:45.301Z,99754.26
2018-12-02T02:55:47.087Z,99747.89
2018-12-02T02:56:48.853Z,99754.26
2018-12-02T02:57:50.621Z,99748.67
2018-12-02T02:58:52.399Z,99755.17
2018-12-02T02:59:54.991Z,99742.56
2018-12-02T03:00:56.763Z,99747.77
2018-12-02T03:01:58.541Z,99737.37
2018-12-02T03:03:00.389Z,99738.66
2018-12-02T03:04:02.170Z,99738.66
2018-12-02T03:05:03.952Z,99732.17
2018-12-02T03:06:05.702Z,99731.00
2018-12-02T03:07:07.482Z,99727.36
2018-12-02T03:08:09.251Z,99730.87
2018-12-02T03:09:11.034Z,99724.89
2018-12-02T03:10:12.799Z,99724.27
2018-12-02T03:11:14.599Z,99722.80
2018-12-02T03:12:16.379Z,99722.16
2018-12-02T03:13:18.137Z,99720.86
2018-12-02T03:14:19.921Z,99720.99
2018-12-02T03:15:21.684Z,99720.86
2018-12-02T03:16:23.485Z,99723.46
2018-12-02T03:17:25.242Z,99710.59
2018-12-02T03:18:27.021Z,99711.77
2018-12-02T03:19:28.801Z,99712.28
2018-12-02T03:20:30.574Z,99708.78
2018-12-02T03:21:32.927Z,99711.37
2018-12-02T03:22:34.741Z,99712.28
2018-12-02T03:23:36.593Z,99710.08
2018-12-02T03:24:38.386Z,99711.50
2018-12-02T03:25:40.143Z,99714.27
2018-12-02T03:26:41.925Z,99709.97
2018-12-02T03:27:43.711Z,99703.19
2018-12-02T03:28:45.483Z,99702.02
2018-12-02T03:29:47.264Z,99707.99
2018-12-02T03:30:49.028Z,99707.48
2018-12-02T03:31:50.852Z,99706.05
2018-12-02T03:32:52.789Z,99703.58
2018-12-02T03:33:55.407Z,99694.88
2018-12-02T03:34:57.154Z,99696.69
2018-12-02T03:35:58.913Z,99700.59
2018-12-02T03:37:00.667Z,99694.88
2018-12-02T03:38:03.311Z,99697.47
2018-12-02T03:39:05.204Z,99690.06
2018-12-02T03:40:06.987Z,99688.50
2018-12-02T03:41:08.759Z,99692.79
2018-12-02T03:42:10.547Z,99693.70
2018-12-02T03:43:12.306Z,99694.48
2018-12-02T03:44:14.075Z,99693.70
2018-12-02T03:45:15.864Z,99690.58
2018-12-02T03:46:17.643Z,99692.79
2018-12-02T03:47:19.423Z,99692.01
2018-12-02T03:48:21.185Z,99692.79
2018-12-02T03:49:22.977Z,99697.98
2018-12-02T03:50:24.847Z,99692.66
2018-12-02T03:51:26.892Z,99688.37
2018-12-02T03:52:28.692Z,99686.56
2018-12-02T03:53:30.456Z,99687.20
2018-12-02T03:54:32.209Z,99679.80
2018-12-02T03:55:33.971Z,99681.61
2018-12-02T03:56:35.753Z,99683.95
2018-12-02T03:57:37.570Z,99675.77
2018-12-02T03:58:39.330Z,99674.47
2018-12-02T03:59:41.111Z,99673.05
2018-12-02T04:00:42.886Z,99675.77
2018-12-02T04:01:44.660Z,99673.56
2018-12-02T04:02:46.456Z,99674.98
2018-12-02T04:03:48.220Z,99671.09
2018-12-02T04:04:49.974Z,99675.38
2018-12-02T04:05:51.740Z,99670.30
2018-12-02T04:06:53.512Z,99673.30
2018-12-02T04:07:55.505Z,99664.20
2018-12-02T04:08:57.262Z,99672.00
2018-12-02T04:09:59.028Z,99666.28
2018-12-02T04:11:00.798Z,99658.87
2018-12-02T04:12:02.565Z,99658.48
2018-12-02T04:13:05.566Z,99651.98
2018-12-02T04:14:07.322Z,99651.20
2018-12-02T04:15:09.133Z,99646.00
2018-12-02T04:16:10.912Z,99647.30
2018-12-02T04:17:12.676Z,99649.52
2018-12-02T04:18:14.472Z,99643.28
2018-12-02T04:19:16.252Z,99644.31
2018-12-02T04:20:18.059Z,99640.30
2018-12-02T04:21:19.813Z,99640.81
2018-12-02T04:22:21.556Z,99643.80
2018-12-02T04:23:23.343Z,99640.42
2018-12-02T04:24:25.100Z,99636.91
2018-12-02T04:25:26.885Z,99633.41
2018-12-02T04:26:28.696Z,99635.61
2018-12-02T04:27:30.474Z,99623.27
2018-12-02T04:28:32.262Z,99622.88
2018-12-02T04:29:34.026Z,99620.80
2018-12-02T04:30:36.069Z,99621.19
2018-12-02T04:31:37.881Z,99620.28
2018-12-02T04:32:39.791Z,99618.08
2018-12-02T04:33:41.603Z,99617.69
2018-12-02T04:34:43.357Z,99615.99
2018-12-02T04:35:45.106Z,99616.90
2018-12-02T04:36:46.886Z,99612.48
2018-12-02T04:37:48.668Z,99614.69
2018-12-02T04:38:50.456Z,99611.58
2018-12-02T04:39:52.229Z,99613.00
2018-12-02T04:40:53.993Z,99615.99
2018-12-02T04:41:55.777Z,99610.53
2018-12-02T04:42:57.643Z,99613.91
2018-12-02T04:43:59.413Z,99612.61
2018-12-02T04:45:01.175Z,99604.81
2018-12-02T04:46:02.949Z,99599.61
2018-12-02T04:47:04.993Z,99600.40
2018-12-02T04:48:06.757Z,99601.30
2018-12-02T04:49:08.606Z,99601.70
2018-12-02T04:50:10.384Z,99597.67
2018-12-02T04:51:12.174Z,99600.54
2018-12-02T04:52:13.969Z,99597.42
2018-12-02T04:53:15.757Z,99594.17
2018-12-02T04:54:17.560Z,99590.78
2018-12-02T04:55:19.943Z,99597.80
2018-12-02T04:56:21.725Z,99590.39
2018-12-02T04:57:23.495Z,99585.20
2018-12-02T04:58:25.265Z,99585.20
2018-12-02T04:59:27.051Z,99585.59
2018-12-02T05:00:28.838Z,99582.47
2018-12-02T05:01:30.607Z,99579.09
2018-12-02T05:02:32.373Z,99574.41
2018-12-02T05:03:34.144Z,99574.16
2018-12-02T05:04:35.975Z,99571.69
2018-12-02T05:05:37.736Z,99572.08
2018-12-02T05:06:39.519Z,99563.77
2018-12-02T05:07:41.287Z,99564.28
2018-12-02T05:08:43.068Z,99568.57
2018-12-02T05:09:44.858Z,99566.48
2018-12-02T05:10:46.627Z,99552.31
2018-12-02T05:11:48.397Z,99555.30
2018-12-02T05:12:50.271Z,99562.71
2018-12-02T05:13:52.065Z,99557.91
2018-12-02T05:14:53.882Z,99561.02
2018-12-02T05:15:56.510Z,99551.92
2018-12-02T05:16:58.287Z,99557.13
2018-12-02T05:18:00.051Z,99551.28
2018-12-02T05:19:01.838Z,99547.91
2018-12-02T05:20:03.634Z,99543.09
2018-12-02T05:21:05.412Z,99541.80
2018-12-02T05:22:07.287Z,99531.65
2018-12-02T05:23:09.047Z,99533.73
2018-12-02T05:24:11.163Z,99534.13
2018-12-02T05:25:17.303Z,99542.06
2018-12-02T05:26:14.760Z,99527.89
2018-12-02T05:27:16.552Z,99527.50
2018-12-02T05:28:18.305Z,99525.69
2018-12-02T05:29:20.061Z,99524.52
2018-12-02T05:30:21.856Z,99527.11
2018-12-02T05:31:23.629Z,99529.20
2018-12-02T05:32:25.393Z,99534.13
2018-12-02T05:33:27.176Z,99527.38
2018-12-02T05:34:28.928Z,99534.91
2018-12-02T05:35:30.733Z,99533.34
2018-12-02T05:36:33.985Z,99524.52
2018-12-02T05:37:36.233Z,99523.21
2018-12-02T05:38:38.045Z,99526.72
2018-12-02T05:39:39.816Z,99522.43
2018-12-02T05:40:41.613Z,99509.70
2018-12-02T05:41:48.791Z,99518.41
2018-12-02T05:42:50.553Z,99513.20
2018-12-02T05:43:52.314Z,99517.11
2018-12-02T05:44:54.096Z,99517.38
2018-12-02T05:45:55.883Z,99517.11
2018-12-02T05:46:57.667Z,99506.84
2018-12-02T05:47:59.437Z,99509.83
2018-12-02T05:49:01.225Z,99509.70
2018-12-02T05:50:02.999Z,99515.81
2018-12-02T05:51:04.781Z,99513.33
2018-12-02T05:52:07.573Z,99511.13
2018-12-02T05:53:09.347Z,99506.72
2018-12-02T05:54:11.109Z,99506.32
2018-12-02T05:55:12.888Z,99509.31
2018-12-02T05:56:14.675Z,99503.72
2018-12-02T05:57:16.441Z,99510.34
2018-12-02T05:58:18.210Z,99520.73
2018-12-02T05:59:20.474Z,99508.13
2018-12-02T06:00:22.644Z,99507.23
2018-12-02T06:01:24.425Z,99504.63
2018-12-02T06:02:26.196Z,99509.55
2018-12-02T06:03:27.989Z,99512.94
2018-12-02T06:04:29.755Z,99513.33
2018-12-02T06:05:31.529Z,99506.56
2018-12-02T06:06:33.308Z,99511.77
2018-12-02T06:07:35.087Z,99503.72
2018-12-02T06:08:36.858Z,99509.83
2018-12-02T06:09:38.641Z,99501.12
2018-12-02T06:10:40.426Z,99502.42
2018-12-02T06:11:43.883Z,99501.52
2018-12-02T06:12:44.075Z,99497.22
2018-12-02T06:13:45.856Z,99495.41
2018-12-02T06:14:48.954Z,99493.33
2018-12-02T06:15:50.796Z,99484.63
2018-12-02T06:16:52.574Z,99489.03
2018-12-02T06:17:54.334Z,99484.50
2018-12-02T06:18:56.110Z,99482.80
2018-12-02T06:19:57.870Z,99484.23
2018-12-02T06:20:59.622Z,99481.63
2018-12-02T06:22:01.415Z,99485.65
2018-12-02T06:23:03.174Z,99483.05
2018-12-02T06:24:04.945Z,99484.74
2018-12-02T06:25:06.752Z,99481.63
2018-12-02T06:26:08.516Z,99483.44
2018-12-02T06:27:10.305Z,99480.72
2018-12-02T06:28:12.066Z,99479.81
2018-12-02T06:29:13.838Z,99483.33
2018-12-02T06:30:15.604Z,99476.04
2018-12-02T06:31:17.357Z,99478.13
2018-12-02T06:32:20.402Z,99475.92
2018-12-02T06:33:22.180Z,99471.11
2018-12-02T06:34:23.960Z,99470.72
2018-12-02T06:35:25.712Z,99466.19
2018-12-02T06:36:27.473Z,99465.52
2018-12-02T06:37:29.264Z,99464.23
2018-12-02T06:38:31.061Z,99460.33
2018-12-02T06:39:32.860Z,99463.83
2018-12-02T06:40:34.666Z,99467.34
2018-12-02T06:41:36.437Z,99459.66
2018-12-02T06:42:38.220Z,99461.75
2018-12-02T06:43:40.012Z,99459.93
2018-12-02T06:44:41.786Z,99460.84
2018-12-02T06:45:43.565Z,99454.86
2018-12-02T06:46:45.326Z,99456.03
2018-12-02T06:47:47.104Z,99459.42
2018-12-02T06:48:48.872Z,99452.53
2018-12-02T06:49:50.628Z,99454.86
2018-12-02T06:50:52.390Z,99458.36
2018-12-02T06:51:54.157Z,99457.45
2018-12-02T06:52:55.941Z,99459.93
2018-12-02T06:53:57.695Z,99457.84
2018-12-02T06:55:00.494Z,99458.24
2018-12-02T06:56:03.263Z,99461.36
2018-12-02T06:57:06.958Z,99452.53
2018-12-02T06:58:08.768Z,99449.93
2018-12-02T06:59:15.162Z,99451.35
2018-12-02T07:00:19.954Z,99453.83
2018-12-02T07:01:22.757Z,99454.34
2018-12-02T07:02:27.866Z,99456.55
2018-12-02T07:03:29.653Z,99454.86
2018-12-02T07:04:31.409Z,99451.35
2018-12-02T07:05:34.944Z,99451.74
2018-12-02T07:06:36.703Z,99450.56
2018-12-02T07:07:38.472Z,99451.47
2018-12-02T07:08:40.266Z,99444.34
2018-12-02T07:09:42.030Z,99445.25
2018-12-02T07:10:43.806Z,99445.77
2018-12-02T07:11:45.565Z,99444.85
2018-12-02T07:12:48.216Z,99442.65
2018-12-02T07:13:49.996Z,99440.44
2018-12-02T07:14:51.751Z,99442.53
2018-12-02T07:15:53.510Z,99447.97
2018-12-02T07:16:55.282Z,99437.17
2018-12-02T07:17:57.047Z,99443.95
2018-12-02T07:18:58.862Z,99440.44
2018-12-02T07:20:01.635Z,99445.13
2018-12-02T07:21:03.428Z,99448.23
2018-12-02T07:22:05.207Z,99442.65
2018-12-02T07:23:08.866Z,99441.86
2018-12-02T07:24:12.640Z,99441.23
2018-12-02T07:25:14.451Z,99438.75
2018-12-02T07:26:16.217Z,99452.25
2018-12-02T07:27:17.993Z,99445.64
2018-12-02T07:28:19.764Z,99447.45
2018-12-02T07:29:21.561Z,99450.84
2018-12-02T07:30:25.114Z,99446.55
2018-12-02T07:31:25.129Z,99448.75
2018-12-02T07:32:26.906Z,99450.45
2018-12-02T07:33:28.670Z,99447.45
2018-12-02T07:34:30.462Z,99437.72
2018-12-02T07:35:32.250Z,99444.22
2018-12-02T07:36:34.020Z,99440.32
2018-12-02T07:37:35.790Z,99438.23
2018-12-02T07:38:37.576Z,99437.33
2018-12-02T07:39:39.414Z,99446.03
2018-12-02T07:40:41.182Z,99442.41
2018-12-02T07:41:42.944Z,99439.02
2018-12-02T07:42:44.705Z,99442.92
2018-12-02T07:43:46.491Z,99446.03
2018-12-02T07:44:48.275Z,99441.62
2018-12-02T07:45:50.042Z,99443.31
2018-12-02T07:46:51.818Z,99446.81
2018-12-02T07:47:53.589Z,99445.91
2018-12-02T07:48:56.725Z,99450.72
2018-12-02T07:49:58.500Z,99444.22
2018-12-02T07:51:00.287Z,99445.77
2018-12-02T07:52:02.055Z,99436.55
2018-12-02T07:53:03.916Z,99430.95
2018-12-02T07:54:05.691Z,99426.42
2018-12-02T07:55:07.465Z,99425.23
2018-12-02T07:56:09.227Z,99429.66
2018-12-02T07:57:12.014Z,99433.55
2018-12-02T07:58:14.684Z,99437.05
2018-12-02T07:59:16.441Z,99428.75
2018-12-02T08:00:18.239Z,99433.95
2018-12-02T08:01:20.013Z,99429.66
2018-12-02T08:02:21.787Z,99429.77
2018-12-02T08:03:23.557Z,99428.35
2018-12-02T08:04:25.328Z,99426.15
2018-12-02T08:05:27.121Z,99424.84
2018-12-02T08:06:28.897Z,99424.45
2018-12-02T08:07:31.698Z,99417.45
2018-12-02T08:08:33.471Z,99407.95
2018-12-02T08:09:35.239Z,99401.97
2018-12-02T08:10:37.029Z,99400.16
2018-12-02T08:11:38.791Z,99391.85
2018-12-02T08:12:40.547Z,99392.36
2018-12-02T08:13:42.305Z,99394.96
2018-12-02T08:14:44.057Z,99395.62
2018-12-02T08:15:45.837Z,99398.47
2018-12-02T08:16:47.617Z,99397.05
2018-12-02T08:17:49.415Z,99396.77
2018-12-02T08:18:51.168Z,99394.56
2018-12-02T08:19:52.945Z,99398.08
2018-12-02T08:20:56.418Z,99391.97
2018-12-02T08:21:58.287Z,99398.47
2018-12-02T08:23:00.043Z,99394.45
2018-12-02T08:24:01.790Z,99393.66
2018-12-02T08:25:03.561Z,99392.76
2018-12-02T08:26:06.863Z,99394.84
2018-12-02T08:27:08.632Z,99395.23
2018-12-02T08:28:10.415Z,99390.03
2018-12-02T08:29:12.272Z,99393.55
2018-12-02T08:30:14.041Z,99389.77
2018-12-02T08:31:15.830Z,99393.27
2018-12-02T08:32:17.592Z,99388.86
2018-12-02T08:33:19.364Z,99391.97
2018-12-02T08:34:21.134Z,99384.56
2018-12-02T08:35:22.911Z,99380.27
2018-12-02T08:36:24.698Z,99386.26
2018-12-02T08:37:26.483Z,99383.27
2018-12-02T08:38:29.379Z,99384.05
2018-12-02T08:39:31.392Z,99378.86
2018-12-02T08:40:33.260Z,99376.66
2018-12-02T08:41:35.042Z,99376.26
2018-12-02T08:42:36.804Z,99371.06
2018-12-02T08:43:38.550Z,99381.45
2018-12-02T08:44:40.375Z,99375.47
2018-12-02T08:45:42.129Z,99374.56
2018-12-02T08:46:43.919Z,99373.78
2018-12-02T08:47:45.767Z,99374.95
2018-12-02T08:48:47.516Z,99372.75
2018-12-02T08:49:49.280Z,99364.95
2018-12-02T08:50:51.053Z,99366.89
2018-12-02T08:51:52.843Z,99370.78
2018-12-02T08:52:54.949Z,99369.88
2018-12-02T08:53:56.714Z,99371.57
2018-12-02T08:54:58.481Z,99371.06
2018-12-02T08:56:00.242Z,99368.06
2018-12-02T08:57:02.049Z,99365.98
2018-12-02T08:58:03.806Z,99369.88
2018-12-02T08:59:05.556Z,99373.78
2018-12-02T09:00:07.333Z,99366.38
2018-12-02T09:01:09.096Z,99366.89
2018-12-02T09:02:10.861Z,99368.19
2018-12-02T09:03:12.682Z,99367.28
2018-12-02T09:04:14.435Z,99371.57
2018-12-02T09:05:16.212Z,99368.86
2018-12-02T09:06:17.962Z,99364.17
2018-12-02T09:07:19.733Z,99369.37
2018-12-02T09:08:21.817Z,99367.16
2018-12-02T09:09:23.587Z,99364.05
2018-12-02T09:10:25.360Z,99361.06
2018-12-02T09:11:27.133Z,99366.25
2018-12-02T09:12:28.901Z,99366.25
2018-12-02T09:13:30.662Z,99365.74
2018-12-02T09:14:32.433Z,99362.36
2018-12-02T09:15:34.198Z,99361.97
2018-12-02T09:16:36.029Z,99370.67
2018-12-02T09:17:37.901Z,99368.98
2018-12-02T09:18:39.676Z,99367.28
2018-12-02T09:19:41.459Z,99366.25
2018-12-02T09:20:43.226Z,99369.37
2018-12-02T09:21:44.987Z,99368.06
2018-12-02T09:22:46.775Z,99365.47
2018-12-02T09:23:48.537Z,99361.57
2018-12-02T09:24:50.353Z,99365.98
2018-12-02T09:25:52.365Z,99368.06
2018-12-02T09:26:53.935Z,99362.88
2018-12-02T09:27:55.709Z,99354.17
2018-12-02T09:28:56.921Z,99358.19
2018-12-02T09:29:58.710Z,99361.69
2018-12-02T09:31:00.473Z,99355.59
2018-12-02T09:32:02.246Z,99352.08
2018-12-02T09:33:04.071Z,99352.59
2018-12-02T09:34:05.869Z,99351.30
2018-12-02T09:35:07.665Z,99344.28
2018-12-02T09:36:09.435Z,99345.19
2018-12-02T09:37:11.200Z,99343.38
2018-12-02T09:38:12.994Z,99342.59
2018-12-02T09:39:18.378Z,99339.48
2018-12-02T09:40:16.694Z,99336.61
2018-12-02T09:41:18.482Z,99334.68
2018-12-02T09:42:20.236Z,99335.19
2018-12-02T09:43:22.027Z,99338.97
2018-12-02T09:44:23.794Z,99334.28
2018-12-02T09:45:25.554Z,99330.90
2018-12-02T09:46:27.323Z,99339.60
2018-12-02T09:47:29.118Z,99336.48
2018-12-02T09:48:30.936Z,99329.48
2018-12-02T09:49:32.717Z,99325.30
2018-12-02T09:50:34.493Z,99323.09
2018-12-02T09:51:36.272Z,99321.69
2018-12-02T09:52:38.030Z,99327.91
2018-12-02T09:53:39.783Z,99321.80
2018-12-02T09:54:41.560Z,99317.91
2018-12-02T09:55:43.320Z,99317.91
2018-12-02T09:56:45.093Z,99312.70
2018-12-02T09:57:46.868Z,99312.31
2018-12-02T09:58:48.670Z,99314.52
2018-12-02T09:59:50.423Z,99310.22
2018-12-02T10:00:52.202Z,99314.23
2018-12-02T10:01:53.963Z,99312.94
2018-12-02T10:02:55.741Z,99312.55
2018-12-02T10:03:57.525Z,99303.84
2018-12-02T10:04:59.278Z,99300.73
2018-12-02T10:06:01.061Z,99299.16
2018-12-02T10:07:02.834Z,99296.84
2018-12-02T10:08:04.596Z,99295.41
2018-12-02T10:09:06.384Z,99291.36
2018-12-02T10:10:08.146Z,99288.77
2018-12-02T10:11:09.928Z,99293.45
2018-12-02T10:12:11.707Z,99292.94
2018-12-02T10:13:13.489Z,99293.45
2018-12-02T10:14:15.284Z,99291.24
2018-12-02T10:15:23.396Z,99290.85
2018-12-02T10:16:25.174Z,99289.55
2018-12-02T10:17:26.931Z,99293.45
2018-12-02T10:18:28.695Z,99289.04
2018-12-02T10:19:30.489Z,99293.45
2018-12-02T10:20:32.250Z,99290.85
2018-12-02T10:21:34.013Z,99290.22
2018-12-02T10:22:35.765Z,99288.91
2018-12-02T10:23:37.539Z,99290.06
2018-12-02T10:24:39.325Z,99292.15
2018-12-02T10:25:41.100Z,99293.45
2018-12-02T10:26:42.872Z,99293.05
2018-12-02T10:27:44.646Z,99289.55
2018-12-02T10:28:46.406Z,99285.53
2018-12-02T10:29:48.213Z,99292.15
2018-12-02T10:30:49.990Z,99291.36
2018-12-02T10:31:51.769Z,99290.72
2018-12-02T10:32:53.528Z,99287.86
2018-12-02T10:33:55.286Z,99288.77
2018-12-02T10:34:57.071Z,99288.41
2018-12-02T10:35:58.831Z,99286.31
2018-12-02T10:37:00.593Z,99282.66
2018-12-02T10:38:02.352Z,99276.16
2018-12-02T10:39:04.398Z,99281.36
2018-12-02T10:40:06.190Z,99280.61
2018-12-02T10:41:07.944Z,99275.77
2018-12-02T10:42:09.992Z,99272.81
2018-12-02T10:43:11.791Z,99270.21
2018-12-02T10:44:13.619Z,99274.11
2018-12-02T10:45:15.456Z,99270.56
2018-12-02T10:46:17.218Z,99269.03
2018-12-02T10:47:18.985Z,99267.22
2018-12-02T10:48:20.769Z,99266.83
2018-12-02T10:49:22.552Z,99262.77
2018-12-02T10:50:24.345Z,99261.47
2018-12-02T10:51:26.107Z,99267.06
2018-12-02T10:52:27.883Z,99268.36
2018-12-02T10:53:29.680Z,99258.88
2018-12-02T10:54:31.502Z,99260.56
2018-12-02T10:55:33.265Z,99257.45
2018-12-02T10:56:35.035Z,99257.58
2018-12-02T10:57:36.788Z,99257.22
2018-12-02T10:58:38.563Z,99257.22
2018-12-02T10:59:40.361Z,99253.67
2018-12-02T11:00:47.442Z,99254.07
2018-12-02T11:01:53.474Z,99252.77
2018-12-02T11:02:55.230Z,99245.38
2018-12-02T11:03:57.006Z,99244.58
2018-12-02T11:04:58.761Z,99242.38
2018-12-02T11:06:00.545Z,99245.52
2018-12-02T11:07:02.313Z,99245.52
2018-12-02T11:08:04.080Z,99243.03
2018-12-02T11:09:05.846Z,99239.53
2018-12-02T11:10:07.609Z,99239.53
2018-12-02T11:11:09.371Z,99240.33
2018-12-02T11:12:11.168Z,99235.47
2018-12-02T11:13:12.965Z,99239.48
2018-12-02T11:14:14.722Z,99236.48
2018-12-02T11:15:16.473Z,99228.74
2018-12-02T11:16:18.259Z,99231.98
2018-12-02T11:17:20.030Z,99228.76
2018-12-02T11:18:21.797Z,99225.92
2018-12-02T11:19:23.564Z,99228.41
2018-12-02T11:20:25.337Z,99223.77
2018-12-02T11:21:27.136Z,99225.92
2018-12-02T11:22:30.826Z,99225.92
2018-12-02T11:23:32.700Z,99218.13
2018-12-02T11:24:34.468Z,99222.03
2018-12-02T11:25:36.244Z,99220.22
2018-12-02T11:26:38.015Z,99221.19
2018-12-02T11:27:39.781Z,99217.39
2018-12-02T11:28:41.552Z,99219.56
2018-12-02T11:29:44.487Z,99217.53
2018-12-02T11:30:46.273Z,99215.08
2018-12-02T11:31:48.073Z,99219.17
2018-12-02T11:32:49.965Z,99218.27
2018-12-02T11:33:51.719Z,99217.70
2018-12-02T11:34:53.475Z,99214.38
2018-12-02T11:35:55.253Z,99220.48
2018-12-02T11:36:57.441Z,99218.05
2018-12-02T11:37:59.214Z,99210.42
2018-12-02T11:39:00.995Z,99212.36
2018-12-02T11:40:02.773Z,99211.85
2018-12-02T11:41:04.617Z,99217.05
2018-12-02T11:42:06.432Z,99212.13
2018-12-02T11:43:08.194Z,99211.06
2018-12-02T11:44:09.962Z,99209.52
2018-12-02T11:45:11.731Z,99212.75
2018-12-02T11:46:13.501Z,99209.77
2018-12-02T11:47:16.593Z,99204.16
2018-12-02T11:48:18.907Z,99203.63
2018-12-02T11:49:20.674Z,99204.19
2018-12-02T11:50:22.447Z,99200.80
2018-12-02T11:51:24.225Z,99202.12
2018-12-02T11:52:26.017Z,99203.70
2018-12-02T11:53:27.789Z,99190.16
2018-12-02T11:54:30.302Z,99192.36
2018-12-02T11:55:32.052Z,99184.56
2018-12-02T11:56:33.821Z,99185.46
2018-12-02T11:57:35.622Z,99187.48
2018-12-02T11:58:37.379Z,99187.31
2018-12-02T11:59:39.169Z,99183.23
2018-12-02T12:00:40.956Z,99184.93
2018-12-02T12:01:42.729Z,99186.48
2018-12-02T12:02:44.555Z,99180.89
2018-12-02T12:03:46.327Z,99180.52
2018-12-02T12:04:48.097Z,99180.13
2018-12-02T12:05:49.886Z,99178.42